TimeCST,TemperatureF,Dew PointF,Humidity,Sea Level PressureIn,VisibilityMPH,Wind Direction,Wind SpeedMPH,Gust SpeedMPH,PrecipitationIn,Events,Conditions,WindDirDegrees,DateUTC
12:15 AM,-5.8,-9.4,84,29.84,10.0,NNW,3.5,-,N/A,,Clear,340,2013-12-10 06:15:00
12:34 AM,-9.4,-13.0,84,29.85,10.0,NNW,5.8,-,N/A,Snow,Light Snow,330,2013-12-10 06:34:00
12:54 AM,-9.4,-14.8,77,29.85,10.0,NNW,4.6,-,N/A,Snow,Light Snow,330,2013-12-10 06:54:00
1:15 AM,-9.4,-14.8,77,29.85,10.0,Calm,Calm,-,N/A,,Clear,0,2013-12-10 07:15:00
1:34 AM,-9.4,-14.8,77,29.85,10.0,WNW,3.5,-,N/A,,Clear,300,2013-12-10 07:34:00
1:54 AM,-14.8,-18.4,84,29.87,10.0,NW,9.2,-,N/A,,Clear,310,2013-12-10 07:54:00
2:15 AM,-14.8,-18.4,84,29.87,10.0,NW,10.4,-,N/A,Snow,Light Snow,310,2013-12-10 08:15:00
2:34 AM,-13.0,-18.4,77,29.88,10.0,NW,9.2,-,N/A,,Clear,310,2013-12-10 08:34:00
2:54 AM,-13.0,-18.4,77,29.88,10.0,NW,9.2,-,N/A,,Clear,310,2013-12-10 08:54:00
3:15 AM,-13.0,-18.4,77,29.88,10.0,WNW,5.8,-,N/A,,Clear,290,2013-12-10 09:15:00
3:34 AM,-16.6,-20.2,84,29.89,10.0,West,9.2,-,N/A,,Clear,280,2013-12-10 09:34:00
3:54 AM,-14.8,-20.2,77,29.89,10.0,West,9.2,-,N/A,,Clear,270,2013-12-10 09:54:00
4:15 AM,-14.8,-18.4,84,29.91,10.0,West,12.7,-,N/A,,Clear,270,2013-12-10 10:15:00
4:34 AM,-13.0,-18.4,77,29.91,10.0,West,9.2,-,N/A,,Clear,270,2013-12-10 10:34:00
4:54 AM,-11.2,-16.6,77,29.91,10.0,West,9.2,-,N/A,,Clear,280,2013-12-10 10:54:00
5:15 AM,-14.8,-18.4,84,29.92,10.0,West,9.2,-,N/A,,Clear,270,2013-12-10 11:15:00
5:34 AM,-13.0,-18.4,77,29.92,10.0,West,5.8,-,N/A,,Clear,270,2013-12-10 11:34:00
5:54 AM,-13.0,-18.4,77,29.91,10.0,West,4.6,-,N/A,,Clear,260,2013-12-10 11:54:00
6:15 AM,-11.2,-16.6,77,29.90,10.0,WSW,4.6,-,N/A,,Clear,250,2013-12-10 12:15:00
6:34 AM,-14.8,-20.2,77,29.90,3.0,West,6.9,-,N/A,,Haze,260,2013-12-10 12:34:00
6:54 AM,-11.2,-16.6,77,29.90,10.0,WSW,5.8,-,N/A,,Clear,240,2013-12-10 12:54:00
7:15 AM,-16.6,-20.2,84,29.89,10.0,SW,5.8,-,N/A,,Clear,230,2013-12-10 13:15:00
7:34 AM,-16.6,-22.0,76,29.91,10.0,WSW,5.8,-,N/A,,Clear,240,2013-12-10 13:34:00
7:55 AM,-16.6,-20.2,84,29.91,10.0,WSW,6.9,-,N/A,,Clear,240,2013-12-10 13:55:00
8:15 AM,-13.0,-18.4,77,29.91,10.0,WSW,6.9,-,N/A,,Clear,250,2013-12-10 14:15:00
8:34 AM,-16.6,-20.2,84,29.92,10.0,WSW,8.1,-,N/A,,Clear,240,2013-12-10 14:34:00
8:55 AM,-16.6,-22.0,76,29.91,10.0,SW,5.8,-,N/A,,Clear,230,2013-12-10 14:55:00
9:14 AM,-14.8,-20.2,77,29.92,10.0,WSW,4.6,-,N/A,,Clear,240,2013-12-10 15:14:00
9:34 AM,-16.6,-20.2,84,29.95,10.0,SW,9.2,-,N/A,,Clear,220,2013-12-10 15:34:00
9:55 AM,-13.0,-18.4,77,29.95,10.0,SSW,8.1,-,N/A,,Clear,210,2013-12-10 15:55:00
10:14 AM,-11.2,-16.6,77,29.96,10.0,SSW,8.1,-,N/A,,Clear,200,2013-12-10 16:14:00
10:35 AM,-9.4,-14.8,77,29.96,10.0,SSW,5.8,-,N/A,,Clear,200,2013-12-10 16:35:00
10:55 AM,-9.4,-14.8,77,29.96,10.0,Calm,Calm,-,N/A,,Clear,0,2013-12-10 16:55:00
11:14 AM,-7.6,-11.2,84,29.96,7.0,South,4.6,-,N/A,,Clear,180,2013-12-10 17:14:00
11:35 AM,-5.8,-11.2,77,29.96,7.0,West,8.1,-,N/A,,Clear,260,2013-12-10 17:35:00
11:55 AM,-5.8,-9.4,84,29.96,4.0,West,8.1,-,N/A,,Haze,260,2013-12-10 17:55:00
12:14 PM,-4.0,-7.6,85,29.97,3.0,West,6.9,-,N/A,,Mist,260,2013-12-10 18:14:00
12:35 PM,-2.2,-7.6,78,29.97,4.0,West,8.1,-,N/A,,Clear,270,2013-12-10 18:35:00
12:55 PM,-2.2,-5.8,85,29.97,7.0,WNW,6.9,-,N/A,,Clear,290,2013-12-10 18:55:00
1:14 PM,-0.4,-5.8,78,29.98,7.0,NW,11.5,-,N/A,,Clear,310,2013-12-10 19:14:00
1:35 PM,-0.4,-5.8,78,29.98,5.0,NNW,12.7,-,N/A,,Clear,330,2013-12-10 19:35:00
1:55 PM,-0.4,-5.8,78,29.99,7.0,NNW,11.5,-,N/A,,Clear,330,2013-12-10 19:55:00
2:14 PM,-2.2,-5.8,85,30.00,10.0,NNW,10.4,-,N/A,,Clear,340,2013-12-10 20:14:00
2:35 PM,-2.2,-5.8,85,30.01,10.0,NNW,6.9,-,N/A,,Clear,340,2013-12-10 20:35:00
2:55 PM,-2.2,-7.6,78,30.02,10.0,NNW,9.2,-,N/A,,Clear,340,2013-12-10 20:55:00
3:14 PM,-4.0,-9.4,78,30.04,10.0,North,10.4,-,N/A,,Clear,350,2013-12-10 21:14:00
3:35 PM,-4.0,-9.4,78,30.05,10.0,NNW,10.4,-,N/A,,Clear,340,2013-12-10 21:35:00
3:55 PM,-5.8,-11.2,77,30.06,10.0,North,10.4,-,N/A,,Clear,350,2013-12-10 21:55:00
4:14 PM,-7.6,-13.0,77,30.08,10.0,NNW,9.2,-,N/A,,Clear,340,2013-12-10 22:14:00
4:35 PM,-7.6,-14.8,71,30.09,10.0,NNW,8.1,-,N/A,,Clear,330,2013-12-10 22:35:00
4:54 PM,-7.6,-14.8,71,30.11,10.0,NNW,9.2,-,N/A,,Clear,340,2013-12-10 22:54:00
5:14 PM,-11.2,-16.6,77,30.12,10.0,NNW,9.2,-,N/A,,Clear,330,2013-12-10 23:14:00
5:35 PM,-11.2,-16.6,77,30.14,10.0,NNW,4.6,-,N/A,,Clear,340,2013-12-10 23:35:00
5:54 PM,-11.2,-16.6,77,30.15,10.0,NNW,5.8,-,N/A,,Clear,340,2013-12-10 23:54:00
6:14 PM,-14.8,-18.4,84,30.16,10.0,NNW,8.1,-,N/A,,Clear,340,2013-12-11 00:14:00
6:35 PM,-14.8,-18.4,84,30.18,10.0,Calm,Calm,-,N/A,,Clear,0,2013-12-11 00:35:00
6:54 PM,-14.8,-18.4,84,30.19,7.0,WNW,5.8,-,N/A,,Clear,300,2013-12-11 00:54:00
7:14 PM,-13.0,-18.4,77,30.20,10.0,Calm,Calm,-,N/A,,Clear,0,2013-12-11 01:14:00
7:35 PM,-11.2,-16.6,77,30.22,10.0,WNW,5.8,-,N/A,,Clear,290,2013-12-11 01:35:00
7:54 PM,-16.6,-20.2,84,30.24,10.0,NW,6.9,-,N/A,,Clear,310,2013-12-11 01:54:00
8:14 PM,-14.8,-20.2,77,30.25,10.0,NW,9.2,-,N/A,,Scattered Clouds,310,2013-12-11 02:14:00
8:35 PM,-13.0,-18.4,77,30.26,10.0,NW,11.5,-,N/A,,Scattered Clouds,320,2013-12-11 02:35:00
8:54 PM,-13.0,-18.4,77,30.27,10.0,NW,11.5,-,N/A,,Scattered Clouds,320,2013-12-11 02:54:00
9:15 PM,-16.6,-22.0,76,30.29,10.0,NW,5.8,-,N/A,,Scattered Clouds,310,2013-12-11 03:15:00
9:34 PM,-14.8,-20.2,77,30.30,10.0,NW,6.9,-,N/A,,Mostly Cloudy,310,2013-12-11 03:34:00
9:54 PM,-14.8,-18.4,84,30.30,10.0,NW,10.4,-,N/A,,Scattered Clouds,310,2013-12-11 03:54:00
10:15 PM,-18.4,-25.6,70,30.32,10.0,West,5.8,-,N/A,,Clear,280,2013-12-11 04:15:00
10:34 PM,-18.4,-23.8,76,30.32,10.0,West,6.9,-,N/A,,Clear,280,2013-12-11 04:34:00
10:55 PM,-18.4,-23.8,76,30.33,10.0,WNW,8.1,-,N/A,,Clear,290,2013-12-11 04:55:00
11:14 PM,-18.4,-23.8,76,30.34,10.0,WNW,6.9,-,N/A,,Clear,300,2013-12-11 05:14:00
11:34 PM,-18.4,-23.8,76,30.34,10.0,WNW,9.2,-,N/A,,Clear,300,2013-12-11 05:34:00
11:55 PM,-18.4,-23.8,76,30.35,10.0,WNW,11.5,-,N/A,,Clear,300,2013-12-11 05:55:00